Time;durP1;ratioP1;P1;durP2;ratioP2;P2;SDS_P1;SDS_P2;PMS_P1;PMS_P2;Temp;Humidity;BMP_temperature;BMP_pressure;BME280_temperature;BME280_humidity;BME280_pressure;Samples;Min_cycle;Max_cycle;Signal;HPM_P1;HPM_P2
2021/07/08 00:01:39;;;;;;;4.82;3.13;;;;;;;;;;6088446;29;20152;-74
2021/07/08 00:04:42;;;;;;;5.05;3.33;;;;;;;;;;6093664;29;20052;-74
2021/07/08 00:07:44;;;;;;;6.35;3.00;;;;;;;;;;6094496;29;20059;-74
2021/07/08 00:10:50;;;;;;;5.07;2.70;;;;;;;;;;6090463;29;20904;-74
2021/07/08 00:13:54;;;;;;;4.38;2.70;;;;;;;;;;6097652;29;20040;-74
2021/07/08 00:16:55;;;;;;;4.45;3.55;;;;;;;;;;6089495;29;20096;-74
2021/07/08 00:19:57;;;;;;;6.18;3.05;;;;;;;;;;6098628;29;20131;-74
2021/07/08 00:22:59;;;;;;;5.22;2.95;;;;;;;;;;6089010;29;20056;-73
2021/07/08 00:26:00;;;;;;;7.28;2.72;;;;;;;;;;6086433;29;20107;-72
2021/07/08 00:29:04;;;;;;;6.60;2.80;;;;;;;;;;6100795;29;20161;-71
2021/07/08 00:32:06;;;;;;;7.53;3.45;;;;;;;;;;6098670;29;20080;-72
2021/07/08 00:35:09;;;;;;;4.32;3.10;;;;;;;;;;6093317;29;20156;-72
2021/07/08 00:38:10;;;;;;;4.85;2.83;;;;;;;;;;6094584;29;20084;-72
2021/07/08 00:41:12;;;;;;;4.90;2.55;;;;;;;;;;6086343;29;20112;-72
2021/07/08 00:44:16;;;;;;;4.53;2.42;;;;;;;;;;6101493;29;20059;-72
2021/07/08 00:47:19;;;;;;;4.47;2.40;;;;;;;;;;6087750;29;20072;-73
2021/07/08 00:50:23;;;;;;;4.35;2.65;;;;;;;;;;6097165;29;20071;-72
2021/07/08 00:53:26;;;;;;;3.85;2.55;;;;;;;;;;6093935;29;20060;-73
2021/07/08 00:56:33;;;;;;;4.07;2.47;;;;;;;;;;6096147;29;20083;-73
2021/07/08 00:59:43;;;;;;;3.95;1.92;;;;;;;;;;6109169;29;20058;-73
2021/07/08 01:02:44;;;;;;;4.03;2.42;;;;;;;;;;6092146;29;20095;-72
2021/07/08 01:05:48;;;;;;;5.07;2.75;;;;;;;;;;6090617;29;20056;-72
2021/07/08 01:08:50;;;;;;;4.13;2.45;;;;;;;;;;6102340;29;20145;-73
2021/07/08 01:11:52;;;;;;;7.28;2.33;;;;;;;;;;6096467;29;20758;-74
2021/07/08 01:14:54;;;;;;;3.58;2.20;;;;;;;;;;6107032;29;20220;-74
2021/07/08 01:17:56;;;;;;;6.05;2.45;;;;;;;;;;6089607;29;20124;-74
2021/07/08 01:21:19;;;;;;;5.10;2.40;;;;;;;;;;6084588;29;20052;-74
2021/07/08 01:24:21;;;;;;;4.03;2.30;;;;;;;;;;6092374;29;20080;-74
2021/07/08 01:27:23;;;;;;;4.07;2.15;;;;;;;;;;6094291;29;20499;-74
2021/07/08 01:30:25;;;;;;;5.22;2.10;;;;;;;;;;6097256;29;20103;-75
2021/07/08 01:33:26;;;;;;;3.42;2.10;;;;;;;;;;6103954;29;20135;-73
2021/07/08 01:36:29;;;;;;;4.40;2.17;;;;;;;;;;6094987;29;20528;-72
2021/07/08 01:39:31;;;;;;;;;;;;;;;;;;6097645;29;20048;-73
2021/07/08 01:42:33;;;;;;;6.47;3.08;;;;;;;;;;6085494;29;20806;-74
2021/07/08 01:45:34;;;;;;;3.60;2.03;;;;;;;;;;6103974;29;20080;-73
2021/07/08 01:48:36;;;;;;;2.55;2.00;;;;;;;;;;6087153;29;20186;-72
2021/07/08 01:51:39;;;;;;;5.65;2.25;;;;;;;;;;6088526;29;20116;-72
2021/07/08 01:54:41;;;;;;;5.63;2.28;;;;;;;;;;6099995;29;20060;-72
2021/07/08 01:57:43;;;;;;;5.68;2.40;;;;;;;;;;6089090;29;20115;-72
2021/07/08 02:00:46;;;;;;;5.30;2.60;;;;;;;;;;6088790;29;20184;-72
2021/07/08 02:03:48;;;;;;;5.60;2.40;;;;;;;;;;6101235;29;20655;-72
2021/07/08 02:06:51;;;;;;;6.55;2.72;;;;;;;;;;6086776;29;20104;-71
2021/07/08 02:09:53;;;;;;;3.47;2.33;;;;;;;;;;6099771;29;20185;-71
2021/07/08 02:12:55;;;;;;;4.30;2.40;;;;;;;;;;6071983;29;20048;-71
2021/07/08 02:15:56;;;;;;;3.45;2.28;;;;;;;;;;6097096;29;20572;-71
2021/07/08 02:18:58;;;;;;;6.80;2.42;;;;;;;;;;6090363;29;20200;-71
2021/07/08 02:22:03;;;;;;;6.00;2.35;;;;;;;;;;6086545;29;20136;-72
2021/07/08 02:25:06;;;;;;;7.72;2.92;;;;;;;;;;6088012;29;20402;-73
2021/07/08 02:28:07;;;;;;;4.75;2.83;;;;;;;;;;6080686;29;20135;-73
2021/07/08 02:31:11;;;;;;;3.50;2.70;;;;;;;;;;6089153;29;20056;-74
2021/07/08 02:34:13;;;;;;;5.72;2.55;;;;;;;;;;6096729;29;20064;-73
2021/07/08 02:37:16;;;;;;;5.15;2.58;;;;;;;;;;6088915;29;20064;-73
2021/07/08 02:40:20;;;;;;;3.15;2.33;;;;;;;;;;6100296;29;20086;-74
2021/07/08 02:43:22;;;;;;;3.50;2.53;;;;;;;;;;6094653;29;20196;-74
2021/07/08 02:46:23;;;;;;;4.13;2.75;;;;;;;;;;6095157;29;20195;-73
2021/07/08 02:49:25;;;;;;;5.50;2.80;;;;;;;;;;6096215;29;20137;-74
2021/07/08 02:52:28;;;;;;;3.58;2.78;;;;;;;;;;6087083;29;20099;-73
2021/07/08 02:55:30;;;;;;;4.00;2.80;;;;;;;;;;6090393;29;20131;-73
2021/07/08 02:58:32;;;;;;;5.82;2.47;;;;;;;;;;6095598;29;20115;-73
2021/07/08 03:01:33;;;;;;;4.78;2.58;;;;;;;;;;6082891;29;20047;-74
2021/07/08 03:04:35;;;;;;;4.15;2.70;;;;;;;;;;6099680;29;20047;-73
2021/07/08 03:07:39;;;;;;;3.70;2.65;;;;;;;;;;6093827;29;20055;-72
2021/07/08 03:10:40;;;;;;;5.55;2.63;;;;;;;;;;6096633;29;20519;-73
2021/07/08 03:13:43;;;;;;;8.27;3.10;;;;;;;;;;6098632;29;20053;-73
2021/07/08 03:16:44;;;;;;;3.43;2.60;;;;;;;;;;6085781;29;20353;-73
2021/07/08 03:19:46;;;;;;;7.22;3.20;;;;;;;;;;6090160;29;20080;-72
2021/07/08 03:22:51;;;;;;;6.03;3.38;;;;;;;;;;6093352;29;20055;-73
2021/07/08 03:25:53;;;;;;;3.92;3.50;;;;;;;;;;6089157;29;20048;-72
2021/07/08 03:28:55;;;;;;;6.50;3.42;;;;;;;;;;6095883;29;20062;-73
2021/07/08 03:31:57;;;;;;;4.55;3.50;;;;;;;;;;6087591;29;20139;-73
2021/07/08 03:34:58;;;;;;;5.40;3.55;;;;;;;;;;6096575;29;20040;-73
2021/07/08 03:38:02;;;;;;;6.43;4.00;;;;;;;;;;6086275;29;20088;-72
2021/07/08 03:41:04;;;;;;;6.00;4.18;;;;;;;;;;6096529;29;20051;-73
2021/07/08 03:44:06;;;;;;;8.18;4.18;;;;;;;;;;6097813;29;20051;-72
2021/07/08 03:47:08;;;;;;;9.60;5.33;;;;;;;;;;6086144;29;20478;-73
2021/07/08 03:50:12;;;;;;;4.67;4.10;;;;;;;;;;6094303;29;20048;-72
2021/07/08 03:53:15;;;;;;;9.18;3.88;;;;;;;;;;6099897;29;20107;-72
2021/07/08 03:56:21;;;;;;;6.70;4.28;;;;;;;;;;6087875;28;20588;-73
2021/07/08 03:59:22;;;;;;;7.65;4.13;;;;;;;;;;6108642;29;20531;-72
2021/07/08 04:02:24;;;;;;;5.63;3.70;;;;;;;;;;6101223;29;20575;-73
2021/07/08 04:05:26;;;;;;;5.50;3.75;;;;;;;;;;6095108;29;20052;-73
2021/07/08 04:08:29;;;;;;;4.70;3.67;;;;;;;;;;6096654;29;20195;-73
2021/07/08 04:11:30;;;;;;;5.75;3.88;;;;;;;;;;6086505;29;20139;-73
2021/07/08 04:14:32;;;;;;;5.57;4.40;;;;;;;;;;6100992;29;20127;-74
2021/07/08 04:17:33;;;;;;;8.02;4.22;;;;;;;;;;6092980;29;20056;-72
2021/07/08 04:20:35;;;;;;;5.30;4.07;;;;;;;;;;6083850;29;20063;-73
2021/07/08 04:23:38;;;;;;;8.02;4.80;;;;;;;;;;6095658;29;20606;-72
2021/07/08 04:26:40;;;;;;;6.55;3.88;;;;;;;;;;6086327;29;20097;-73
2021/07/08 04:29:41;;;;;;;6.70;4.45;;;;;;;;;;6097159;29;20105;-73
2021/07/08 04:32:43;;;;;;;8.57;3.95;;;;;;;;;;6083135;29;20067;-73
2021/07/08 04:35:45;;;;;;;8.63;4.60;;;;;;;;;;6091869;29;20157;-73
2021/07/08 04:38:52;;;;;;;7.75;4.63;;;;;;;;;;6093445;29;20174;-72
2021/07/08 04:41:54;;;;;;;13.18;5.25;;;;;;;;;;6094181;29;20134;-72
2021/07/08 04:44:55;;;;;;;7.82;4.80;;;;;;;;;;6098422;29;20051;-72
2021/07/08 04:47:57;;;;;;;9.27;4.82;;;;;;;;;;6082999;29;20051;-72
2021/07/08 04:51:01;;;;;;;6.82;4.70;;;;;;;;;;6080771;29;20060;-73
2021/07/08 04:54:04;;;;;;;8.60;4.90;;;;;;;;;;6093201;29;20139;-72
2021/07/08 04:57:06;;;;;;;8.77;5.05;;;;;;;;;;6086998;29;20135;-73
2021/07/08 05:00:10;;;;;;;10.85;5.00;;;;;;;;;;6089975;29;20112;-73
2021/07/08 05:03:11;;;;;;;8.43;4.35;;;;;;;;;;6077691;29;20452;-72
2021/07/08 05:06:13;;;;;;;8.68;5.25;;;;;;;;;;6081921;29;20134;-72
2021/07/08 05:09:16;;;;;;;10.48;5.00;;;;;;;;;;6094254;29;20077;-72
2021/07/08 05:12:17;;;;;;;6.93;4.57;;;;;;;;;;6079796;29;20044;-72
2021/07/08 05:15:19;;;;;;;5.13;3.95;;;;;;;;;;6085463;29;20136;-73
2021/07/08 05:18:21;;;;;;;9.43;4.80;;;;;;;;;;6085836;29;20143;-73
2021/07/08 05:21:22;;;;;;;6.20;4.68;;;;;;;;;;6082322;29;20074;-72
2021/07/08 05:24:26;;;;;;;9.00;4.70;;;;;;;;;;6089396;29;20101;-72
2021/07/08 05:27:28;;;;;;;10.13;5.05;;;;;;;;;;6083926;29;20048;-72
2021/07/08 05:30:29;;;;;;;5.72;4.93;;;;;;;;;;6086019;29;20131;-71
2021/07/08 05:33:31;;;;;;;7.88;5.78;;;;;;;;;;6093721;29;20200;-71
2021/07/08 05:36:32;;;;;;;10.13;5.35;;;;;;;;;;6088775;29;20055;-76
2021/07/08 05:39:36;;;;;;;9.07;5.70;;;;;;;;;;6098138;29;20067;-72
2021/07/08 05:42:37;;;;;;;6.18;4.78;;;;;;;;;;6084571;29;20446;-74
2021/07/08 05:45:40;;;;;;;6.38;5.07;;;;;;;;;;6083273;29;20068;-72
2021/07/08 05:48:44;;;;;;;9.32;5.35;;;;;;;;;;6091679;29;20524;-73
2021/07/08 05:51:48;;;;;;;10.50;5.85;;;;;;;;;;6083720;29;20068;-72
2021/07/08 05:54:51;;;;;;;12.32;5.50;;;;;;;;;;6099904;29;20067;-72
2021/07/08 05:57:52;;;;;;;7.03;5.18;;;;;;;;;;6086831;29;20120;-74
2021/07/08 06:00:54;;;;;;;9.20;5.65;;;;;;;;;;6087390;29;20209;-74
2021/07/08 06:03:55;;;;;;;11.50;5.10;;;;;;;;;;6091772;29;20076;-74
2021/07/08 06:06:57;;;;;;;13.63;5.72;;;;;;;;;;6086491;29;20111;-72
2021/07/08 06:10:00;;;;;;;13.23;5.32;;;;;;;;;;6096046;29;20075;-68
2021/07/08 06:13:02;;;;;;;7.75;5.13;;;;;;;;;;6095742;29;20108;-69
2021/07/08 06:16:04;;;;;;;9.05;5.90;;;;;;;;;;6092494;29;20076;-69
2021/07/08 06:19:05;;;;;;;12.45;6.45;;;;;;;;;;6094431;29;20188;-69
2021/07/08 06:22:07;;;;;;;11.68;6.55;;;;;;;;;;6094100;29;20048;-68
2021/07/08 06:25:12;;;;;;;10.45;6.57;;;;;;;;;;6088222;29;20135;-68
2021/07/08 06:28:14;;;;;;;15.98;6.20;;;;;;;;;;6092162;29;20504;-68
2021/07/08 06:31:15;;;;;;;9.32;6.18;;;;;;;;;;6085125;29;20408;-68
2021/07/08 06:34:17;;;;;;;10.57;6.30;;;;;;;;;;6087094;29;20062;-68
2021/07/08 06:37:19;;;;;;;9.85;6.85;;;;;;;;;;6085182;29;20595;-69
2021/07/08 06:40:25;;;;;;;9.07;5.93;;;;;;;;;;6087663;29;20055;-68
2021/07/08 06:43:27;;;;;;;9.80;6.07;;;;;;;;;;6089455;29;20063;-70
2021/07/08 06:46:30;;;;;;;8.60;6.85;;;;;;;;;;6080938;29;20647;-70
2021/07/08 06:49:34;;;;;;;9.57;6.17;;;;;;;;;;6088559;29;20064;-71
2021/07/08 06:52:36;;;;;;;11.30;6.07;;;;;;;;;;6088432;29;20091;-70
2021/07/08 06:55:40;;;;;;;7.90;6.07;;;;;;;;;;6084156;29;20051;-71
2021/07/08 06:58:42;;;;;;;9.82;6.03;;;;;;;;;;6095628;29;20116;-70
2021/07/08 07:01:44;;;;;;;7.15;6.13;;;;;;;;;;6089967;29;20172;-70
2021/07/08 07:04:45;;;;;;;8.05;6.25;;;;;;;;;;6090846;29;20127;-74
2021/07/08 07:07:47;;;;;;;7.95;6.57;;;;;;;;;;6087023;29;20056;-76
2021/07/08 07:10:50;;;;;;;10.25;6.15;;;;;;;;;;6079006;29;20271;-73
2021/07/08 07:13:52;;;;;;;14.73;6.20;;;;;;;;;;6093014;29;20080;-73
2021/07/08 07:16:53;;;;;;;11.13;6.00;;;;;;;;;;6082298;29;20071;-73
2021/07/08 07:19:55;;;;;;;11.65;7.30;;;;;;;;;;6092322;29;20064;-73
2021/07/08 07:22:57;;;;;;;10.13;6.85;;;;;;;;;;6087289;29;20143;-73
2021/07/08 07:26:00;;;;;;;7.70;6.00;;;;;;;;;;6074864;29;21744;-72
2021/07/08 07:29:01;;;;;;;9.57;6.60;;;;;;;;;;6085743;29;20044;-71
2021/07/08 07:32:03;;;;;;;9.32;6.60;;;;;;;;;;6076505;29;20056;-72
2021/07/08 07:35:06;;;;;;;7.15;6.25;;;;;;;;;;6084179;29;20080;-74
2021/07/08 07:38:11;;;;;;;9.05;7.10;;;;;;;;;;6084641;29;20408;-72
2021/07/08 07:41:14;;;;;;;11.40;6.55;;;;;;;;;;6088897;29;20044;-72
2021/07/08 07:44:16;;;;;;;9.23;6.50;;;;;;;;;;6089850;29;20542;-72
2021/07/08 07:47:18;;;;;;;8.35;6.30;;;;;;;;;;6078179;29;20131;-73
2021/07/08 07:50:20;;;;;;;9.90;7.35;;;;;;;;;;6083956;29;20068;-73
2021/07/08 07:53:22;;;;;;;13.07;7.18;;;;;;;;;;6081573;29;20048;-72
2021/07/08 07:56:25;;;;;;;9.35;7.80;;;;;;;;;;6082275;29;20041;-72
2021/07/08 07:59:26;;;;;;;11.75;7.95;;;;;;;;;;6090090;29;20131;-72
2021/07/08 08:02:28;;;;;;;9.40;7.30;;;;;;;;;;6078525;29;20093;-72
2021/07/08 08:05:49;;;;;;;12.48;7.75;;;;;;;;;;6080973;29;20430;-73
2021/07/08 08:08:50;;;;;;;7.50;6.50;;;;;;;;;;6088113;29;20500;-72
2021/07/08 08:11:54;;;;;;;8.18;6.60;;;;;;;;;;6087051;29;20040;-72
2021/07/08 08:14:55;;;;;;;8.18;7.32;;;;;;;;;;6092761;29;20046;-73
2021/07/08 08:18:00;;;;;;;11.95;6.75;;;;;;;;;;6079465;29;20507;-74
2021/07/08 08:21:02;;;;;;;10.40;6.97;;;;;;;;;;6079820;29;20044;-72
2021/07/08 08:24:04;;;;;;;7.85;7.00;;;;;;;;;;6089440;29;20063;-72
2021/07/08 08:27:07;;;;;;;11.52;7.35;;;;;;;;;;6081567;29;20168;-73
2021/07/08 08:30:13;;;;;;;10.52;7.20;;;;;;;;;;6090351;29;20172;-73
2021/07/08 08:33:15;;;;;;;11.18;7.20;;;;;;;;;;6086440;29;20068;-72
2021/07/08 08:36:16;;;;;;;10.52;6.88;;;;;;;;;;6083356;29;20142;-72
2021/07/08 08:39:18;;;;;;;10.32;6.95;;;;;;;;;;6097054;29;20165;-76
2021/07/08 08:42:24;;;;;;;8.52;6.38;;;;;;;;;;6090846;29;20052;-72
2021/07/08 08:45:26;;;;;;;12.13;8.48;;;;;;;;;;6083213;29;20083;-74
2021/07/08 08:48:28;;;;;;;8.75;7.68;;;;;;;;;;6084276;29;20044;-73
2021/07/08 08:51:29;;;;;;;10.77;7.90;;;;;;;;;;6082094;29;20135;-73
2021/07/08 08:54:31;;;;;;;10.30;7.93;;;;;;;;;;6099116;29;20092;-74
2021/07/08 08:57:34;;;;;;;9.02;7.55;;;;;;;;;;6094239;29;20138;-72
2021/07/08 09:00:37;;;;;;;8.88;7.43;;;;;;;;;;6085538;29;20056;-72
2021/07/08 09:03:39;;;;;;;8.68;7.43;;;;;;;;;;6094194;29;20957;-73
2021/07/08 09:06:41;;;;;;;12.70;8.27;;;;;;;;;;6082375;29;20049;-72
2021/07/08 09:09:43;;;;;;;16.02;11.07;;;;;;;;;;6093423;29;20064;-73
2021/07/08 09:12:57;;;;;;;15.13;8.57;;;;;;;;;;6092021;29;20192;-72
2021/07/08 09:16:10;;;;;;;12.55;10.18;;;;;;;;;;6084711;29;20084;-73
2021/07/08 09:19:15;;;;;;;10.35;9.15;;;;;;;;;;6098057;29;20171;-72
2021/07/08 09:22:30;;;;;;;10.80;7.78;;;;;;;;;;6085105;29;20433;-72
2021/07/08 09:25:31;;;;;;;12.32;7.05;;;;;;;;;;6090327;29;20154;-73
2021/07/08 09:28:38;;;;;;;13.48;9.30;;;;;;;;;;6096084;29;20124;-72
2021/07/08 09:31:40;;;;;;;15.93;10.88;;;;;;;;;;6092357;29;20135;-75
2021/07/08 09:34:42;;;;;;;11.75;10.30;;;;;;;;;;6091454;29;20127;-72
2021/07/08 09:37:44;;;;;;;14.93;9.88;;;;;;;;;;6087529;29;20143;-73
2021/07/08 09:40:46;;;;;;;15.30;9.90;;;;;;;;;;6097464;29;20874;-72
2021/07/08 09:43:49;;;;;;;15.32;10.40;;;;;;;;;;6094981;29;20425;-72
2021/07/08 09:46:51;;;;;;;12.75;9.00;;;;;;;;;;6084903;29;20137;-72
2021/07/08 09:49:53;;;;;;;12.13;9.67;;;;;;;;;;6096867;29;20126;-72
2021/07/08 09:53:01;;;;;;;12.07;8.15;;;;;;;;;;6090234;29;21346;-72
2021/07/08 09:56:20;;;;;;;10.23;8.63;;;;;;;;;;6087417;29;20044;-76
2021/07/08 09:59:35;;;;;;;13.50;9.50;;;;;;;;;;6095356;29;20052;-75
2021/07/08 10:02:37;;;;;;;15.45;9.95;;;;;;;;;;6078221;29;20410;-75
2021/07/08 10:05:40;;;;;;;13.90;11.10;;;;;;;;;;6096790;29;20877;-75
2021/07/08 10:08:42;;;;;;;13.30;9.82;;;;;;;;;;6096381;29;20059;-75
2021/07/08 10:11:45;;;;;;;13.68;9.90;;;;;;;;;;6096119;29;20115;-75
2021/07/08 10:14:48;;;;;;;15.77;9.82;;;;;;;;;;6108873;29;20149;-76
2021/07/08 10:17:50;;;;;;;9.52;7.68;;;;;;;;;;6093223;29;20068;-75
2021/07/08 10:20:55;;;;;;;7.53;6.05;;;;;;;;;;6088982;29;20191;-75
2021/07/08 10:24:01;;;;;;;9.32;6.70;;;;;;;;;;6096955;29;20101;-76
2021/07/08 10:27:03;;;;;;;9.88;5.60;;;;;;;;;;6093448;29;20092;-75
2021/07/08 10:30:08;;;;;;;5.90;5.03;;;;;;;;;;6101927;29;20064;-77
2021/07/08 10:33:10;;;;;;;9.25;5.25;;;;;;;;;;6088507;29;20088;-76
2021/07/08 10:36:30;;;;;;;8.02;5.13;;;;;;;;;;6087780;29;20508;-76
2021/07/08 10:39:40;;;;;;;8.77;5.28;;;;;;;;;;6100166;29;20064;-76
2021/07/08 10:42:46;;;;;;;7.43;5.15;;;;;;;;;;6093488;29;20120;-75
2021/07/08 10:45:49;;;;;;;7.70;4.63;;;;;;;;;;6083332;29;20540;-77
2021/07/08 10:48:51;;;;;;;6.28;4.55;;;;;;;;;;6091662;29;20156;-76
2021/07/08 10:51:53;;;;;;;7.40;3.97;;;;;;;;;;6083739;29;20165;-75
2021/07/08 10:54:54;;;;;;;6.25;4.65;;;;;;;;;;6094995;29;20066;-76
2021/07/08 10:57:56;;;;;;;9.27;5.75;;;;;;;;;;6094502;29;20099;-75
2021/07/08 11:01:00;;;;;;;7.25;5.10;;;;;;;;;;6088261;29;20503;-75
2021/07/08 11:04:04;;;;;;;7.05;4.80;;;;;;;;;;6099542;29;20056;-78
2021/07/08 11:07:17;;;;;;;7.53;5.20;;;;;;;;;;6088833;29;20048;-76
2021/07/08 11:10:34;;;;;;;7.45;4.80;;;;;;;;;;6095847;29;20063;-76
2021/07/08 11:13:37;;;;;;;8.50;5.45;;;;;;;;;;6097503;29;20049;-75
2021/07/08 11:16:44;;;;;;;7.57;5.03;;;;;;;;;;6093654;29;20108;-75
2021/07/08 11:19:50;;;;;;;9.73;4.45;;;;;;;;;;6092504;29;20052;-75
2021/07/08 11:22:51;;;;;;;7.90;4.47;;;;;;;;;;6097010;29;20418;-75
2021/07/08 11:25:56;;;;;;;8.23;4.82;;;;;;;;;;6096994;29;20186;-76
2021/07/08 11:29:01;;;;;;;5.78;4.25;;;;;;;;;;6099361;29;20084;-75
2021/07/08 11:32:20;;;;;;;12.48;4.00;;;;;;;;;;6087512;29;20530;-74
2021/07/08 11:35:25;;;;;;;7.03;4.00;;;;;;;;;;6090981;29;20521;-76
2021/07/08 11:38:32;;;;;;;3.47;3.15;;;;;;;;;;6096988;29;20115;-76
2021/07/08 11:41:34;;;;;;;4.85;3.60;;;;;;;;;;6098293;29;20457;-76
2021/07/08 11:44:36;;;;;;;4.40;3.53;;;;;;;;;;6105292;29;20077;-76
2021/07/08 11:47:43;;;;;;;5.55;3.40;;;;;;;;;;6093524;29;20075;-76
2021/07/08 11:50:49;;;;;;;6.07;3.78;;;;;;;;;;6096295;29;20052;-75
2021/07/08 11:53:53;;;;;;;5.05;4.22;;;;;;;;;;6100215;29;20058;-76
2021/07/08 11:56:55;;;;;;;6.63;3.90;;;;;;;;;;6096316;29;20055;-75
2021/07/08 11:59:57;;;;;;;4.53;3.55;;;;;;;;;;6100444;29;20087;-74
2021/07/08 12:03:00;;;;;;;6.00;3.67;;;;;;;;;;6092167;29;20060;-76
2021/07/08 12:06:04;;;;;;;5.80;4.00;;;;;;;;;;6099774;29;20056;-76
2021/07/08 12:09:06;;;;;;;5.82;3.92;;;;;;;;;;6104221;29;20116;-73
2021/07/08 12:12:08;;;;;;;7.00;4.85;;;;;;;;;;6107731;29;20052;-72
2021/07/08 12:15:10;;;;;;;5.50;4.30;;;;;;;;;;6102121;29;20075;-74
2021/07/08 12:18:13;;;;;;;8.48;4.25;;;;;;;;;;6103012;29;20064;-72
2021/07/08 12:21:24;;;;;;;4.97;3.28;;;;;;;;;;6095258;29;20049;-73
2021/07/08 12:24:30;;;;;;;5.18;4.10;;;;;;;;;;6094839;29;20134;-72
2021/07/08 12:27:38;;;;;;;9.50;4.40;;;;;;;;;;6096674;29;20055;-72
2021/07/08 12:30:39;;;;;;;4.57;3.00;;;;;;;;;;6095578;29;20856;-73
2021/07/08 12:33:55;;;;;;;2.53;2.08;;;;;;;;;;6086139;29;21007;-72
2021/07/08 12:37:10;;;;;;;8.10;3.03;;;;;;;;;;6096739;29;20044;-72
2021/07/08 12:40:13;;;;;;;3.63;2.78;;;;;;;;;;6100368;29;20052;-74
2021/07/08 12:43:18;;;;;;;4.68;3.30;;;;;;;;;;6102032;29;20081;-72
2021/07/08 12:46:20;;;;;;;6.95;3.88;;;;;;;;;;6095934;29;20068;-73
2021/07/08 12:49:23;;;;;;;4.47;3.50;;;;;;;;;;6112190;29;20079;-72
2021/07/08 12:52:25;;;;;;;5.88;3.00;;;;;;;;;;6109693;29;20138;-73
2021/07/08 12:55:48;;;;;;;4.37;2.67;;;;;;;;;;6093694;29;20079;-72
2021/07/08 12:58:56;;;;;;;5.82;3.15;;;;;;;;;;6094693;29;20040;-74
2021/07/08 13:02:00;;;;;;;7.75;3.33;;;;;;;;;;6095057;29;20083;-71
2021/07/08 13:05:06;;;;;;;5.47;3.30;;;;;;;;;;6091947;29;20048;-73
2021/07/08 13:08:11;;;;;;;4.05;3.10;;;;;;;;;;6095173;29;20143;-74
2021/07/08 13:11:14;;;;;;;5.90;3.97;;;;;;;;;;6107045;29;20071;-73
2021/07/08 13:14:24;;;;;;;6.30;3.70;;;;;;;;;;6093505;29;20063;-73
2021/07/08 13:17:28;;;;;;;4.53;3.47;;;;;;;;;;6080812;29;20056;-73
2021/07/08 13:20:40;;;;;;;8.52;3.40;;;;;;;;;;6085215;29;20103;-75
2021/07/08 13:23:42;;;;;;;4.68;3.35;;;;;;;;;;6093428;29;20052;-74
2021/07/08 13:26:46;;;;;;;5.95;3.03;;;;;;;;;;6100470;29;20048;-75
2021/07/08 13:29:48;;;;;;;5.30;2.67;;;;;;;;;;6102925;29;20405;-74
2021/07/08 13:33:04;;;;;;;5.53;2.90;;;;;;;;;;6087675;29;20044;-74
2021/07/08 13:36:10;;;;;;;4.95;2.70;;;;;;;;;;6088027;29;20063;-74
2021/07/08 13:39:13;;;;;;;6.90;3.20;;;;;;;;;;6095556;29;20087;-73
2021/07/08 13:42:21;;;;;;;8.35;2.88;;;;;;;;;;6100708;29;20080;-74
2021/07/08 13:45:29;;;;;;;11.52;3.40;;;;;;;;;;6108975;29;20093;-76
2021/07/08 13:48:35;;;;;;;24.83;4.03;;;;;;;;;;6089683;29;20052;-72
2021/07/08 13:51:44;;;;;;;7.00;3.05;;;;;;;;;;6100953;29;20059;-73
2021/07/08 13:54:46;;;;;;;14.88;4.15;;;;;;;;;;6111642;29;20051;-72
2021/07/08 13:57:48;;;;;;;8.18;3.53;;;;;;;;;;6100069;29;20109;-72
2021/07/08 14:00:49;;;;;;;10.98;5.32;;;;;;;;;;6107562;29;20084;-73
2021/07/08 14:03:51;;;;;;;10.27;4.80;;;;;;;;;;6109227;29;20071;-75
2021/07/08 14:06:55;;;;;;;18.13;6.60;;;;;;;;;;6110465;29;20092;-73
2021/07/08 14:09:56;;;;;;;10.55;5.85;;;;;;;;;;6105792;29;20103;-73
2021/07/08 14:12:58;;;;;;;11.90;6.15;;;;;;;;;;6104861;29;20048;-74
2021/07/08 14:16:00;;;;;;;22.00;10.15;;;;;;;;;;6097623;29;20060;-67
2021/07/08 14:19:02;;;;;;;12.15;10.77;;;;;;;;;;6091317;29;20599;-68
2021/07/08 14:22:05;;;;;;;14.43;9.13;;;;;;;;;;6096647;29;20056;-75
2021/07/08 14:25:08;;;;;;;18.63;13.18;;;;;;;;;;6109875;29;20055;-76
2021/07/08 14:28:09;;;;;;;14.97;9.60;;;;;;;;;;6103555;29;20051;-72
2021/07/08 14:31:11;;;;;;;9.10;5.20;;;;;;;;;;6103019;29;20062;-71
2021/07/08 14:34:13;;;;;;;8.63;5.95;;;;;;;;;;6093090;29;20159;-71
2021/07/08 14:37:16;;;;;;;11.32;5.53;;;;;;;;;;6102211;29;20063;-71
2021/07/08 14:40:18;;;;;;;5.53;4.15;;;;;;;;;;6093887;29;20095;-73
2021/07/08 14:43:37;;;;;;;6.75;3.70;;;;;;;;;;6119560;29;20052;-70
2021/07/08 14:46:39;;;;;;;4.47;2.58;;;;;;;;;;6103302;29;20055;-69
2021/07/08 14:49:41;;;;;;;3.60;2.58;;;;;;;;;;6108025;29;20103;-72
2021/07/08 14:52:50;;;;;;;3.28;2.00;;;;;;;;;;6091949;29;20048;-72
2021/07/08 14:55:51;;;;;;;6.78;2.30;;;;;;;;;;6101744;29;20559;-72
2021/07/08 14:58:53;;;;;;;3.95;2.10;;;;;;;;;;6112859;29;20135;-73
2021/07/08 15:01:55;;;;;;;3.47;2.03;;;;;;;;;;6102120;29;20055;-69
2021/07/08 15:04:56;;;;;;;4.55;2.10;;;;;;;;;;6111470;29;20059;-73
2021/07/08 15:08:00;;;;;;;4.22;2.22;;;;;;;;;;6107098;29;20048;-70
2021/07/08 15:11:06;;;;;;;2.75;1.92;;;;;;;;;;6107371;29;20056;-68
2021/07/08 15:14:08;;;;;;;2.85;1.70;;;;;;;;;;6103193;29;20051;-68
2021/07/08 15:17:11;;;;;;;2.78;1.73;;;;;;;;;;6094281;29;20047;-69
2021/07/08 15:20:21;;;;;;;4.82;2.00;;;;;;;;;;6095843;29;20052;-72
2021/07/08 15:23:25;;;;;;;3.95;1.95;;;;;;;;;;6109964;29;20076;-73
2021/07/08 15:26:27;;;;;;;6.80;2.60;;;;;;;;;;6096610;29;20051;-70
2021/07/08 15:29:29;;;;;;;2.30;1.80;;;;;;;;;;6107533;29;20549;-69
2021/07/08 15:32:31;;;;;;;2.70;1.80;;;;;;;;;;6098158;29;20095;-73
2021/07/08 15:35:33;;;;;;;2.33;1.63;;;;;;;;;;6096782;29;20052;-74
2021/07/08 15:43:26;;;;;;;7.05;1.92;;;;;;;;;;6350750;27;20205;-72
2021/07/08 15:46:27;;;;;;;10.52;2.13;;;;;;;;;;6281406;28;20049;-74
2021/07/08 15:49:29;;;;;;;7.07;2.30;;;;;;;;;;6304581;28;20049;-74
2021/07/08 15:52:31;;;;;;;7.68;2.08;;;;;;;;;;6303747;28;20441;-72
2021/07/08 15:55:33;;;;;;;8.52;2.22;;;;;;;;;;6298603;28;20055;-79
2021/07/08 15:58:36;;;;;;;4.45;2.13;;;;;;;;;;6300032;28;20053;-72
2021/07/08 16:01:37;;;;;;;3.95;1.90;;;;;;;;;;6298391;28;20051;-72
2021/07/08 16:04:39;;;;;;;2.03;1.20;;;;;;;;;;6296455;28;20061;-73
2021/07/08 16:07:44;;;;;;;2.83;1.48;;;;;;;;;;6297805;28;20044;-71
2021/07/08 16:10:45;;;;;;;2.85;1.60;;;;;;;;;;6299915;28;20118;-82
2021/07/08 16:13:48;;;;;;;3.72;2.00;;;;;;;;;;6325916;28;20040;-73
2021/07/08 16:16:50;;;;;;;2.85;1.48;;;;;;;;;;6308268;28;20040;-72
2021/07/08 16:19:52;;;;;;;2.28;1.20;;;;;;;;;;6319864;28;20048;-72
2021/07/08 16:22:54;;;;;;;3.45;1.25;;;;;;;;;;6322885;28;20071;-74
2021/07/08 16:25:55;;;;;;;5.57;1.45;;;;;;;;;;6299232;28;20045;-72
2021/07/08 16:28:59;;;;;;;3.65;1.73;;;;;;;;;;6295778;28;20037;-74
2021/07/08 16:32:01;;;;;;;6.10;1.85;;;;;;;;;;6314909;28;20499;-80
2021/07/08 16:35:04;;;;;;;4.32;2.50;;;;;;;;;;6319967;28;20037;-76
2021/07/08 16:38:05;;;;;;;3.05;1.55;;;;;;;;;;6306106;28;20388;-73
2021/07/08 16:41:07;;;;;;;4.32;1.92;;;;;;;;;;6296825;28;20570;-73
2021/07/08 16:44:10;;;;;;;3.65;1.63;;;;;;;;;;6311452;28;20049;-72
2021/07/08 16:47:12;;;;;;;;;;;;;;;;;;6315994;28;20055;-73
2021/07/08 16:50:14;;;;;;;5.10;1.60;;;;;;;;;;6320475;28;20423;-79
2021/07/08 16:53:16;;;;;;;3.05;1.55;;;;;;;;;;6291674;28;20500;-73
2021/07/08 16:56:18;;;;;;;2.28;1.67;;;;;;;;;;6306730;28;20585;-73
2021/07/08 16:59:21;;;;;;;5.57;1.90;;;;;;;;;;6305505;28;20048;-72
2021/07/08 17:02:23;;;;;;;2.50;1.50;;;;;;;;;;6301453;28;20045;-72
2021/07/08 17:05:25;;;;;;;2.90;1.67;;;;;;;;;;6280929;28;20574;-80
2021/07/08 17:08:27;;;;;;;2.92;1.60;;;;;;;;;;6283334;28;20075;-73
2021/07/08 17:11:28;;;;;;;4.82;1.63;;;;;;;;;;6271535;28;20059;-74
2021/07/08 17:14:32;;;;;;;4.50;1.70;;;;;;;;;;6284900;28;20095;-74
2021/07/08 17:17:34;;;;;;;2.95;1.88;;;;;;;;;;6312853;28;20066;-72
2021/07/08 17:20:36;;;;;;;3.20;1.83;;;;;;;;;;6304121;28;20056;-73
2021/07/08 17:23:38;;;;;;;4.47;1.90;;;;;;;;;;6308341;28;20127;-73
2021/07/08 17:26:40;;;;;;;2.53;1.58;;;;;;;;;;6305808;28;20052;-75
2021/07/08 17:29:43;;;;;;;5.47;1.73;;;;;;;;;;6295427;28;20127;-73
2021/07/08 17:32:49;;;;;;;3.38;1.70;;;;;;;;;;6290610;28;20048;-71
2021/07/08 17:35:50;;;;;;;4.65;1.50;;;;;;;;;;6294797;28;20063;-72
2021/07/08 17:38:52;;;;;;;3.80;1.45;;;;;;;;;;6298924;28;20048;-71
2021/07/08 17:41:54;;;;;;;3.33;1.30;;;;;;;;;;6303282;28;20040;-76
2021/07/08 17:44:57;;;;;;;2.75;1.40;;;;;;;;;;6303707;28;20056;-72
2021/07/08 17:48:03;;;;;;;5.90;1.58;;;;;;;;;;6307690;28;20053;-71
2021/07/08 17:51:06;;;;;;;2.17;1.23;;;;;;;;;;6307321;28;20047;-72
2021/07/08 17:54:08;;;;;;;2.53;1.50;;;;;;;;;;6302443;28;20056;-76
2021/07/08 17:57:09;;;;;;;1.67;1.10;;;;;;;;;;6299290;28;20143;-71
2021/07/08 18:00:17;;;;;;;5.03;1.70;;;;;;;;;;6307567;28;20048;-79
2021/07/08 18:03:19;;;;;;;3.72;1.10;;;;;;;;;;6302835;28;20052;-76
2021/07/08 18:06:20;;;;;;;2.15;1.30;;;;;;;;;;6305883;28;20466;-73
2021/07/08 18:09:22;;;;;;;2.55;1.10;;;;;;;;;;6306652;28;20427;-73
2021/07/08 18:12:24;;;;;;;2.13;1.10;;;;;;;;;;6302276;28;20391;-74
2021/07/08 18:15:28;;;;;;;2.08;1.17;;;;;;;;;;6304059;28;20445;-79
2021/07/08 18:18:30;;;;;;;2.67;1.40;;;;;;;;;;6305794;28;20392;-72
2021/07/08 18:21:32;;;;;;;4.78;1.40;;;;;;;;;;6306572;28;20061;-74